Terminal Aerodrome Forecast
Issued by NWS Louisville, KY

Home | Current Version | Previous Version | Text Only | Print | Product List | Glossary On
Versions: 1 2 3 4 5 6 7 8 9 10 11 12 13
000
FTUS43 KLMK 261100
TAFBWG
TAF
KBWG 261130Z 2612/2712 21007KT 5SM -SHRA BR SCT010 BKN035
     FM261330 31008KT 5SM -SHRA BR BKN008
     FM262300 34007KT P6SM SCT015 BKN080=

USA.gov is the U.S. government's official web portal to all federal, state and local government web resources and services.